KDOV/DOV METAR and TAF weather

Enter ICAO airport designator
Station Type Date Time Source
KDOV METAR 2018/12/10 23:56 UTC NOAA

KDOV 102356Z AUTO 00000KT 10SM CLR M01/M05 A3016 RMK AO2 SLP217 T10061050 10039 21013 52015 $


Station Type Date Time Source
KDOV Decoded METAR 2018/12/10 23:56 UTC NOAA

Dover Air Force Base, DE, United States (KDOV) 39-08N 075-28W
Dec 10, 2018 - 06:56 PM EST / 2018.12.10 2356 UTC
Wind: Calm:0
Visibility: 10 mile(s):0
Sky conditions: clear
Temperature: 30.9 F (-0.6 C)
Dew Point: 23.0 F (-5.0 C)
Relative Humidity: 72%
Pressure (altimeter): 30.16 in. Hg (1021 hPa)
Pressure tendency: 0.04 inches (1.5 hPa) higher than three hours ago
ob: KDOV 102356Z AUTO 00000KT 10SM CLR M01/M05 A3016 RMK AO2 SLP217 T10061050 10039 21013 52015
cycle: 0

Station Type Date Time Source
KDOV TAF 2018/12/11 00:12 UTC NOAA

TAF KDOV 110000Z 1100/1206 36009KT 9999 SCT150 QNH3003INS WND VRB06KT AFT 1202 TX03/1117Z TNM01/1111Z


Example: see airport list